createdAt,value
2023-01-17T17:02:01.512Z,102.25
2023-01-17T17:03:33.917Z,101.50
2023-01-17T17:05:07.749Z,102.50
2023-01-17T17:06:39.905Z,100.75
2023-01-17T17:08:11.819Z,98.75
2023-01-17T17:09:43.858Z,93.25
2023-01-17T17:11:20.579Z,93.50
2023-01-17T17:12:52.570Z,106.00
2023-01-17T17:14:24.684Z,95.25
2023-01-17T17:15:56.641Z,100.00
2023-01-17T17:17:29.430Z,89.50
2023-01-17T17:19:04.304Z,82.00
2023-01-17T17:20:36.329Z,83.00
2023-01-17T17:22:08.519Z,76.80
2023-01-17T17:23:40.402Z,75.20
2023-01-17T17:25:12.720Z,70.00
2023-01-17T17:26:44.617Z,69.40
2023-01-17T17:28:17.070Z,63.75
2023-01-17T17:29:49.269Z,65.75
2023-01-17T17:31:21.275Z,66.60
2023-01-17T17:32:53.156Z,75.20
2023-01-17T17:34:27.814Z,70.40
2023-01-17T17:36:10.377Z,75.40
2023-01-17T17:37:42.591Z,78.25
2023-01-17T17:39:17.713Z,81.25
2023-01-17T17:40:49.678Z,85.75
2023-01-17T17:42:21.509Z,83.75
2023-01-17T17:43:54.067Z,90.50
2023-01-17T17:45:26.078Z,88.50
2023-01-17T17:46:57.992Z,87.50
2023-01-17T17:48:29.848Z,86.50
2023-01-17T17:50:01.829Z,95.00
2023-01-17T17:51:35.648Z,99.75
2023-01-17T17:53:08.786Z,102.50
2023-01-17T17:54:40.911Z,105.25
2023-01-17T17:56:13.147Z,114.50
2023-01-17T17:57:45.915Z,114.00
2023-01-17T17:59:19.604Z,106.25
2023-01-17T18:00:51.437Z,115.25
2023-01-17T18:02:23.450Z,117.75
2023-01-17T18:03:57.280Z,126.00
2023-01-17T18:05:30.165Z,127.33
2023-01-17T18:07:02.340Z,123.00
2023-01-17T18:08:35.100Z,134.33
2023-01-17T18:10:07.793Z,135.67
2023-01-17T18:11:41.017Z,136.33
2023-01-17T18:13:12.874Z,144.67
2023-01-17T18:14:44.780Z,143.67
2023-01-17T18:16:27.467Z,148.33
2023-01-17T18:17:59.520Z,140.00
2023-01-17T18:19:31.594Z,147.33
2023-01-17T18:21:13.834Z,143.00
2023-01-17T18:22:45.842Z,141.00
2023-01-17T18:24:19.424Z,140.67
2023-01-17T18:25:51.251Z,148.00
2023-01-17T18:27:23.167Z,150.67
2023-01-17T18:28:55.787Z,152.67
2023-01-17T18:30:27.990Z,140.00
2023-01-17T18:31:59.962Z,143.33
2023-01-17T18:33:31.976Z,148.67
2023-01-17T18:35:04.165Z,137.67
2023-01-17T18:36:36.488Z,140.67
2023-01-17T18:38:08.451Z,137.00
2023-01-17T18:39:40.402Z,135.00
2023-01-17T18:41:14.282Z,136.67
2023-01-17T18:42:48.678Z,123.00
2023-01-17T18:44:22.229Z,132.00
2023-01-17T18:45:54.455Z,134.00
2023-01-17T18:47:26.311Z,135.00
2023-01-17T18:48:58.405Z,109.00
2023-01-17T18:50:30.287Z,123.00
2023-01-17T18:52:02.430Z,124.75
2023-01-17T18:53:35.097Z,123.00
2023-01-17T18:55:07.314Z,127.25
2023-01-17T18:56:39.267Z,120.75
2023-01-17T18:58:11.184Z,121.00
2023-01-17T18:59:44.468Z,114.75
2023-01-17T19:01:17.596Z,108.50
2023-01-17T19:02:49.593Z,111.50
2023-01-17T19:04:21.724Z,113.50
2023-01-17T19:05:53.588Z,106.00
2023-01-17T19:07:29.257Z,104.00
2023-01-17T19:09:01.273Z,103.75
2023-01-17T19:10:33.606Z,98.75
2023-01-17T19:12:05.663Z,137.67
2023-01-17T19:13:38.336Z,160.75
2023-01-17T19:15:10.451Z,206.75
2023-01-17T19:16:42.618Z,165.25
2023-01-17T19:18:14.535Z,165.00
2023-01-17T19:19:46.729Z,140.67
2023-01-17T19:21:20.403Z,126.33
2023-01-17T19:22:52.861Z,131.33
2023-01-17T19:24:24.782Z,122.75
2023-01-17T19:25:56.726Z,134.00
2023-01-17T19:27:28.618Z,127.50
2023-01-17T19:29:00.586Z,130.67
2023-01-17T19:30:34.539Z,129.33
2023-01-17T19:32:07.509Z,128.75
2023-01-17T19:33:40.150Z,121.25
2023-01-17T19:35:14.014Z,121.00
2023-01-17T19:36:45.987Z,121.67
2023-01-17T19:38:17.900Z,120.75
2023-01-17T19:39:49.822Z,125.50
2023-01-17T19:41:26.773Z,119.50
2023-01-17T19:42:59.363Z,127.50
2023-01-17T19:44:31.927Z,118.25
2023-01-17T19:46:03.959Z,117.50
2023-01-17T19:47:36.546Z,117.25
2023-01-17T19:49:08.739Z,120.75
2023-01-17T19:50:40.643Z,115.00
2023-01-17T19:52:13.207Z,114.75
2023-01-17T19:53:45.121Z,112.50
2023-01-17T19:55:17.899Z,106.75
2023-01-17T19:56:49.742Z,100.00
2023-01-17T19:58:21.602Z,103.00
2023-01-17T19:59:54.168Z,103.50
2023-01-17T20:01:28.830Z,95.00
2023-01-17T20:03:00.777Z,96.00
2023-01-17T20:04:32.727Z,91.50
2023-01-17T20:06:08.229Z,89.00
2023-01-17T20:07:40.213Z,89.25
2023-01-17T20:09:12.174Z,88.25
2023-01-17T20:10:44.045Z,79.00
2023-01-17T20:12:16.477Z,85.00
2023-01-17T20:13:49.208Z,85.75
2023-01-17T20:15:23.090Z,89.75
2023-01-17T20:16:55.348Z,90.00
2023-01-17T20:18:27.353Z,87.00
2023-01-17T20:19:59.225Z,89.50
2023-01-17T20:21:31.255Z,98.00
2023-01-17T20:23:05.736Z,91.75
2023-01-17T20:24:37.642Z,100.00
2023-01-17T20:26:13.499Z,127.25
2023-01-17T20:27:45.894Z,110.75
2023-01-17T20:29:18.128Z,103.50
2023-01-17T20:30:49.901Z,106.50
2023-01-17T20:32:21.890Z,106.50
2023-01-17T20:33:54.719Z,105.00
2023-01-17T20:35:28.826Z,101.25
2023-01-17T20:37:00.687Z,95.00
2023-01-17T20:38:45.080Z,101.50
2023-01-17T20:40:17.678Z,101.75
2023-01-17T20:41:51.570Z,106.75
2023-01-17T20:43:23.477Z,103.00
2023-01-17T20:44:55.280Z,103.50
2023-01-17T20:46:29.053Z,101.75
2023-01-17T20:48:01.091Z,108.50
2023-01-17T20:49:33.036Z,103.50
2023-01-17T20:51:10.755Z,102.50
2023-01-17T20:52:42.601Z,105.50
2023-01-17T20:54:18.077Z,108.00
2023-01-17T20:55:56.378Z,106.00
2023-01-17T20:57:28.361Z,107.25
2023-01-17T20:59:12.522Z,98.25
2023-01-17T21:00:44.521Z,103.75
2023-01-17T21:02:16.557Z,104.00
2023-01-17T21:03:51.229Z,100.00
2023-01-17T21:05:23.086Z,97.00
2023-01-17T21:06:55.424Z,89.25
2023-01-17T21:08:28.544Z,92.75
2023-01-17T21:10:00.456Z,90.25
2023-01-17T21:11:34.137Z,95.25
2023-01-17T21:13:05.985Z,97.25
2023-01-17T21:14:38.704Z,91.50
2023-01-17T21:16:14.488Z,80.00
2023-01-17T21:17:46.350Z,94.00
2023-01-17T21:19:18.321Z,91.75
2023-01-17T21:20:50.237Z,96.75
2023-01-17T21:22:22.229Z,100.50
2023-01-17T21:23:55.336Z,96.75
2023-01-17T21:25:27.186Z,97.75
2023-01-17T21:26:59.125Z,102.50
2023-01-17T21:28:32.955Z,92.75
2023-01-17T21:30:05.255Z,98.00
2023-01-17T21:31:39.746Z,98.25
2023-01-17T21:33:13.187Z,93.75
2023-01-17T21:34:45.105Z,97.25
2023-01-17T21:36:17.675Z,95.75
2023-01-17T21:37:49.888Z,85.00
2023-01-17T21:39:21.765Z,94.50
2023-01-17T21:40:53.661Z,89.25
2023-01-17T21:42:25.510Z,92.00
2023-01-17T21:43:59.125Z,92.75
2023-01-17T21:45:32.211Z,91.25
2023-01-17T21:47:04.155Z,94.75
2023-01-17T21:48:35.968Z,102.75
2023-01-17T21:50:09.506Z,113.75
2023-01-17T21:51:54.349Z,90.00
2023-01-17T21:53:27.893Z,92.50
2023-01-17T21:55:18.455Z,86.25
2023-01-17T21:57:09.244Z,90.50
2023-01-17T21:58:44.295Z,87.00
2023-01-17T22:00:16.693Z,89.50
2023-01-17T22:01:48.690Z,88.75
2023-01-17T22:03:20.621Z,86.00
2023-01-17T22:04:54.640Z,93.00
2023-01-17T22:06:29.191Z,94.50
2023-01-17T22:08:14.454Z,93.50
2023-01-17T22:09:46.367Z,89.75
2023-01-17T22:11:20.003Z,94.00
2023-01-17T22:12:52.398Z,98.50
2023-01-17T22:14:24.307Z,88.75
2023-01-17T22:16:00.190Z,94.50
2023-01-17T22:17:32.141Z,91.75
2023-01-17T22:19:04.858Z,91.75
2023-01-17T22:20:41.461Z,79.00
2023-01-17T22:22:13.438Z,87.25
2023-01-17T22:23:58.707Z,88.00
2023-01-17T22:25:30.935Z,84.50
2023-01-17T22:27:02.948Z,88.25
2023-01-17T22:28:34.878Z,81.00
2023-01-17T22:30:13.000Z,82.75
2023-01-17T22:31:45.596Z,79.75
2023-01-17T22:33:17.584Z,86.00
2023-01-17T22:34:49.404Z,80.50
2023-01-17T22:36:21.430Z,84.50
2023-01-17T22:37:54.151Z,77.50
2023-01-17T22:39:26.051Z,71.60
2023-01-17T22:41:25.445Z,75.20
2023-01-17T22:42:57.664Z,79.50
2023-01-17T22:44:29.819Z,71.40
2023-01-17T22:46:01.650Z,69.60
2023-01-17T22:47:34.428Z,69.40
2023-01-17T22:49:08.554Z,66.60
2023-01-17T22:50:40.457Z,61.50
2023-01-17T22:52:12.284Z,68.00
2023-01-17T22:53:48.538Z,62.20
2023-01-17T22:55:21.727Z,57.50
2023-01-17T22:56:54.279Z,63.75
2023-01-17T22:58:28.745Z,59.25
2023-01-17T23:00:00.707Z,59.00
2023-01-17T23:01:32.942Z,61.75
2023-01-17T23:03:06.431Z,54.50
2023-01-17T23:04:38.464Z,55.75
2023-01-17T23:06:14.900Z,56.00
2023-01-17T23:07:49.749Z,55.75
2023-01-17T23:09:21.753Z,53.25
2023-01-17T23:11:12.208Z,48.25
2023-01-17T23:12:44.081Z,46.50
2023-01-17T23:14:16.823Z,46.67
2023-01-17T23:16:07.163Z,47.25
2023-01-17T23:17:57.428Z,45.50
2023-01-17T23:19:32.316Z,43.50
2023-01-17T23:21:04.258Z,41.75
2023-01-17T23:22:36.230Z,47.75
2023-01-17T23:24:08.143Z,42.00
2023-01-17T23:25:40.160Z,42.00
2023-01-17T23:27:34.027Z,40.00
2023-01-17T23:29:05.965Z,41.75
2023-01-17T23:30:39.540Z,36.75
2023-01-17T23:32:11.436Z,36.75
2023-01-17T23:33:43.273Z,32.50
